createdAt,value
2023-05-21T00:01:09.167Z,8.00
2023-05-21T00:03:54.603Z,7.50
2023-05-21T00:06:39.921Z,7.30
2023-05-21T00:09:25.208Z,8.70
2023-05-21T00:12:10.657Z,7.93
2023-05-21T00:14:56.038Z,7.88
2023-05-21T00:17:41.874Z,7.60
2023-05-21T00:20:29.293Z,7.50
2023-05-21T00:23:18.589Z,7.47
2023-05-21T00:26:04.206Z,6.63
2023-05-21T00:28:50.179Z,6.75
2023-05-21T00:31:35.830Z,7.28
2023-05-21T00:34:21.035Z,6.70
2023-05-21T00:37:06.398Z,7.25
2023-05-21T00:39:51.633Z,6.47
2023-05-21T00:42:41.277Z,7.72
2023-05-21T00:45:26.289Z,7.40
2023-05-21T00:48:12.944Z,7.50
2023-05-21T00:50:58.577Z,7.35
2023-05-21T00:53:45.184Z,7.60
2023-05-21T00:56:31.127Z,6.97
2023-05-21T00:59:16.862Z,9.05
2023-05-21T01:02:04.316Z,6.90
2023-05-21T01:04:50.086Z,6.90
2023-05-21T01:07:37.220Z,7.07
2023-05-21T01:10:23.330Z,6.60
2023-05-21T01:13:08.677Z,7.07
2023-05-21T01:15:54.677Z,6.60
2023-05-21T01:18:40.143Z,6.40
2023-05-21T01:21:26.022Z,6.03
2023-05-21T01:24:11.893Z,6.97
2023-05-21T01:26:58.728Z,7.75
2023-05-21T01:29:44.130Z,6.85
2023-05-21T01:32:32.454Z,7.60
2023-05-21T01:35:22.485Z,7.28
2023-05-21T01:38:27.537Z,6.75
2023-05-21T01:41:15.259Z,7.20
2023-05-21T01:44:02.410Z,6.75
2023-05-21T01:46:47.675Z,6.90
2023-05-21T01:49:33.497Z,6.65
2023-05-21T01:52:18.928Z,6.50
2023-05-21T01:55:04.544Z,6.78
2023-05-21T01:57:51.367Z,7.10
2023-05-21T02:00:37.550Z,7.18
2023-05-21T02:03:27.308Z,6.75
2023-05-21T02:06:12.690Z,6.70
2023-05-21T02:08:57.968Z,7.43
2023-05-21T02:11:43.226Z,6.47
2023-05-21T02:14:29.876Z,6.70
2023-05-21T02:17:15.208Z,7.03
2023-05-21T02:20:18.927Z,7.07
2023-05-21T02:23:04.129Z,6.55
2023-05-21T02:25:49.253Z,7.03
2023-05-21T02:28:36.176Z,6.40
2023-05-21T02:31:21.746Z,6.97
2023-05-21T02:34:08.140Z,7.22
2023-05-21T02:36:54.700Z,7.13
2023-05-21T02:39:40.247Z,6.45
2023-05-21T02:42:25.986Z,7.30
2023-05-21T02:45:12.915Z,7.13
2023-05-21T02:47:58.198Z,7.32
2023-05-21T02:50:43.382Z,6.47
2023-05-21T02:53:28.600Z,7.10
2023-05-21T02:56:13.976Z,6.75
2023-05-21T02:58:59.258Z,6.60
2023-05-21T03:01:45.263Z,7.05
2023-05-21T03:04:30.467Z,6.85
2023-05-21T03:07:19.123Z,6.88
2023-05-21T03:10:05.262Z,6.05
2023-05-21T03:12:50.311Z,7.35
2023-05-21T03:15:35.922Z,7.35
2023-05-21T03:18:21.442Z,6.50
2023-05-21T03:21:06.934Z,6.00
2023-05-21T03:23:53.129Z,6.78
2023-05-21T03:26:38.545Z,6.78
2023-05-21T03:29:23.790Z,6.60
2023-05-21T03:32:09.154Z,5.90
2023-05-21T03:34:54.196Z,7.50
2023-05-21T03:37:39.485Z,6.97
2023-05-21T03:40:25.096Z,6.40
2023-05-21T03:43:10.524Z,6.10
2023-05-21T03:45:56.324Z,5.97
2023-05-21T03:48:41.978Z,7.35
2023-05-21T03:51:27.595Z,7.93
2023-05-21T03:54:12.825Z,6.97
2023-05-21T03:56:58.062Z,7.20
2023-05-21T03:59:43.500Z,6.10
2023-05-21T04:02:28.895Z,7.47
2023-05-21T04:05:13.917Z,7.60
2023-05-21T04:08:00.270Z,6.57
2023-05-21T04:10:45.536Z,6.78
2023-05-21T04:13:30.956Z,7.15
2023-05-21T04:16:19.262Z,6.15
2023-05-21T04:19:05.748Z,7.38
2023-05-21T04:21:51.064Z,7.30
2023-05-21T04:24:40.405Z,6.60
2023-05-21T04:27:25.644Z,6.47
2023-05-21T04:30:11.227Z,6.90
2023-05-21T04:32:58.069Z,6.75
2023-05-21T04:35:44.637Z,8.00
2023-05-21T04:38:30.267Z,6.40
2023-05-21T04:41:15.701Z,7.47
2023-05-21T04:44:01.161Z,7.38
2023-05-21T04:46:46.685Z,8.15
2023-05-21T04:49:35.029Z,8.57
2023-05-21T04:52:20.444Z,7.60
2023-05-21T04:55:09.721Z,8.43
2023-05-21T04:57:55.242Z,7.65
2023-05-21T05:00:42.239Z,9.25
2023-05-21T05:03:27.519Z,8.93
2023-05-21T05:06:12.723Z,8.13
2023-05-21T05:08:58.007Z,8.80
2023-05-21T05:11:43.172Z,7.90
2023-05-21T05:14:28.534Z,8.25
2023-05-21T05:17:16.849Z,8.15
2023-05-21T05:20:01.938Z,8.95
2023-05-21T05:22:47.447Z,7.68
2023-05-21T05:25:32.852Z,8.50
2023-05-21T05:28:17.975Z,8.20
2023-05-21T05:31:03.588Z,8.77
2023-05-21T05:33:49.267Z,7.85
2023-05-21T05:36:34.805Z,7.88
2023-05-21T05:39:20.109Z,7.80
2023-05-21T05:42:05.786Z,8.02
2023-05-21T05:44:50.767Z,8.80
2023-05-21T05:47:36.122Z,8.55
2023-05-21T05:50:21.549Z,8.63
2023-05-21T05:53:07.346Z,8.50
2023-05-21T05:55:52.916Z,8.88
2023-05-21T05:58:38.246Z,8.95
2023-05-21T06:01:24.833Z,9.00
2023-05-21T06:04:10.391Z,9.43
2023-05-21T06:06:59.769Z,8.68
2023-05-21T06:09:44.885Z,9.20
2023-05-21T06:12:30.221Z,9.75
2023-05-21T06:15:16.621Z,9.40
2023-05-21T06:18:01.996Z,9.20
2023-05-21T06:20:47.100Z,9.60
2023-05-21T06:23:32.761Z,8.68
2023-05-21T06:26:19.526Z,8.95
2023-05-21T06:29:04.665Z,9.00
2023-05-21T06:31:50.165Z,8.70
2023-05-21T06:34:35.526Z,9.48
2023-05-21T06:37:26.440Z,8.57
2023-05-21T06:40:12.468Z,9.07
2023-05-21T06:42:59.834Z,9.15
2023-05-21T06:45:45.156Z,8.55
2023-05-21T06:48:30.601Z,8.60
2023-05-21T06:51:15.950Z,8.68
2023-05-21T06:54:01.169Z,8.60
2023-05-21T06:56:46.648Z,9.15
2023-05-21T06:59:31.927Z,8.48
2023-05-21T07:02:17.603Z,8.75
2023-05-21T07:05:05.967Z,9.23
2023-05-21T07:07:51.116Z,7.30
2023-05-21T07:10:36.565Z,7.82
2023-05-21T07:13:22.153Z,6.97
2023-05-21T07:16:07.736Z,6.88
2023-05-21T07:18:52.908Z,6.72
2023-05-21T07:21:38.112Z,6.50
2023-05-21T07:24:23.704Z,6.30
2023-05-21T07:27:18.137Z,5.75
2023-05-21T07:30:11.080Z,3.80
2023-05-21T07:32:56.439Z,3.15
2023-05-21T07:35:41.605Z,3.65
2023-05-21T07:38:26.942Z,3.22
2023-05-21T07:41:13.706Z,2.92
2023-05-21T07:44:01.234Z,2.90
2023-05-21T07:46:46.761Z,2.75
2023-05-21T07:49:31.962Z,2.80
2023-05-21T07:52:17.420Z,2.83
2023-05-21T07:55:02.908Z,3.10
2023-05-21T07:57:47.989Z,3.15
2023-05-21T08:00:44.062Z,3.00
2023-05-21T08:03:31.187Z,2.95
2023-05-21T08:06:16.502Z,3.30
2023-05-21T08:09:06.131Z,2.78
2023-05-21T08:11:51.805Z,2.70
2023-05-21T08:14:37.133Z,2.65
2023-05-21T08:17:22.434Z,2.53
2023-05-21T08:20:08.285Z,2.30
2023-05-21T08:22:53.711Z,2.40
2023-05-21T08:25:39.218Z,3.13
2023-05-21T08:28:24.574Z,2.85
2023-05-21T08:31:09.816Z,2.92
2023-05-21T08:33:56.611Z,2.83
2023-05-21T08:36:43.393Z,2.83
2023-05-21T08:39:28.906Z,2.78
2023-05-21T08:42:37.438Z,2.83
2023-05-21T08:45:23.802Z,3.17
2023-05-21T08:48:11.720Z,2.67
2023-05-21T08:50:56.927Z,3.00
2023-05-21T08:53:44.844Z,3.47
2023-05-21T08:56:31.812Z,3.35
2023-05-21T08:59:18.360Z,3.30
2023-05-21T09:02:05.048Z,3.03
2023-05-21T09:04:50.968Z,3.17
2023-05-21T09:07:44.449Z,3.42
2023-05-21T09:10:35.865Z,3.22
2023-05-21T09:13:21.103Z,2.95
2023-05-21T09:16:07.244Z,3.28
2023-05-21T09:18:52.745Z,3.08
2023-05-21T09:21:39.544Z,2.85
2023-05-21T09:24:25.071Z,3.40
2023-05-21T09:27:10.530Z,2.85
2023-05-21T09:29:55.905Z,3.25
2023-05-21T09:32:41.470Z,2.53
2023-05-21T09:35:27.386Z,2.65
2023-05-21T09:38:13.076Z,2.58
2023-05-21T09:40:58.814Z,2.85
2023-05-21T09:43:44.996Z,2.78
2023-05-21T09:46:48.455Z,3.38
2023-05-21T09:49:33.549Z,3.13
2023-05-21T09:52:28.443Z,3.20
2023-05-21T09:55:14.736Z,3.10
2023-05-21T09:58:00.451Z,2.83
2023-05-21T10:00:45.962Z,4.18
2023-05-21T10:03:33.647Z,3.30
2023-05-21T10:06:19.638Z,2.95
2023-05-21T10:09:10.589Z,3.53
2023-05-21T10:11:57.440Z,3.58
2023-05-21T10:14:49.878Z,3.35
2023-05-21T10:17:36.055Z,2.67
2023-05-21T10:20:22.713Z,2.88
2023-05-21T10:23:09.209Z,3.38
2023-05-21T10:25:56.268Z,3.58
2023-05-21T10:28:42.192Z,3.78
2023-05-21T10:31:28.581Z,3.65
2023-05-21T10:34:14.838Z,3.38
2023-05-21T10:37:02.477Z,3.40
2023-05-21T10:39:49.099Z,3.83
2023-05-21T10:42:34.185Z,3.35
2023-05-21T10:45:49.939Z,3.60
2023-05-21T10:49:02.956Z,4.18
2023-05-21T10:52:08.238Z,3.47
2023-05-21T10:55:11.955Z,3.70
2023-05-21T10:57:57.169Z,2.80
2023-05-21T11:00:43.817Z,2.85
2023-05-21T11:03:30.799Z,3.10
2023-05-21T11:06:25.256Z,3.28
2023-05-21T11:09:15.172Z,3.70
2023-05-21T11:12:01.136Z,3.05
2023-05-21T11:15:06.595Z,3.50
2023-05-21T11:17:57.092Z,3.17
2023-05-21T11:20:50.441Z,3.58
2023-05-21T11:23:51.635Z,3.00
2023-05-21T11:26:50.168Z,3.15
2023-05-21T11:29:44.687Z,2.33
2023-05-21T11:32:30.006Z,3.53
2023-05-21T11:35:15.190Z,2.72
2023-05-21T11:38:00.376Z,2.70
2023-05-21T11:40:55.549Z,3.10
2023-05-21T11:43:41.178Z,2.90
2023-05-21T11:46:28.403Z,3.05
2023-05-21T11:49:13.894Z,2.85
2023-05-21T11:52:04.015Z,2.75
2023-05-21T11:54:55.118Z,3.20
2023-05-21T11:57:42.984Z,3.35
2023-05-21T12:00:28.780Z,3.28
2023-05-21T12:03:14.759Z,2.78
2023-05-21T12:06:05.753Z,2.80
2023-05-21T12:08:58.343Z,4.95
2023-05-21T12:11:44.148Z,3.03
2023-05-21T12:14:29.840Z,3.40
2023-05-21T12:17:19.817Z,3.25
2023-05-21T12:20:08.251Z,2.95
2023-05-21T12:22:54.208Z,4.35
2023-05-21T12:25:39.465Z,3.00
2023-05-21T12:28:24.907Z,2.90
2023-05-21T12:31:15.444Z,3.28
2023-05-21T12:34:02.274Z,3.30
2023-05-21T12:36:51.780Z,2.70
2023-05-21T12:39:43.181Z,2.75
2023-05-21T12:42:30.817Z,3.13
2023-05-21T12:45:18.881Z,3.15
2023-05-21T12:48:04.702Z,4.40
2023-05-21T12:50:52.181Z,3.05
2023-05-21T12:53:38.554Z,2.97
2023-05-21T12:56:23.842Z,3.78
2023-05-21T12:59:14.639Z,3.92
2023-05-21T13:02:00.584Z,3.20
2023-05-21T13:04:46.560Z,2.95
2023-05-21T13:07:34.503Z,2.97
2023-05-21T13:10:19.850Z,3.50
2023-05-21T13:13:05.013Z,3.17
2023-05-21T13:15:51.021Z,3.03
2023-05-21T13:18:36.184Z,2.88
2023-05-21T13:21:21.638Z,3.38
2023-05-21T13:24:07.513Z,2.95
2023-05-21T13:26:52.855Z,3.03
2023-05-21T13:29:38.204Z,2.85
2023-05-21T13:32:23.485Z,3.25
2023-05-21T13:35:10.093Z,2.78
2023-05-21T13:37:55.582Z,2.85
2023-05-21T13:40:41.569Z,3.70
2023-05-21T13:43:27.202Z,2.90
2023-05-21T13:46:12.582Z,3.08
2023-05-21T13:48:58.038Z,3.25
2023-05-21T13:51:43.271Z,4.38
2023-05-21T13:54:28.747Z,3.05
2023-05-21T13:57:13.977Z,2.92
2023-05-21T13:59:59.787Z,2.92
2023-05-21T14:02:45.332Z,2.97
2023-05-21T14:05:30.859Z,3.08
2023-05-21T14:08:19.959Z,3.22
2023-05-21T14:11:05.445Z,2.75
2023-05-21T14:13:50.382Z,2.90
2023-05-21T14:16:35.674Z,2.38
2023-05-21T14:19:20.931Z,2.90
2023-05-21T14:22:06.100Z,2.78
2023-05-21T14:24:51.339Z,3.08
2023-05-21T14:27:37.982Z,2.75
2023-05-21T14:30:23.504Z,2.90
2023-05-21T14:33:08.764Z,2.67
2023-05-21T14:35:54.228Z,2.45
2023-05-21T14:38:39.482Z,2.40
2023-05-21T14:41:28.129Z,2.85
2023-05-21T14:44:13.165Z,2.42
2023-05-21T14:46:58.391Z,2.65
2023-05-21T14:49:43.523Z,2.42
2023-05-21T14:52:28.726Z,2.63
2023-05-21T14:55:16.528Z,2.40
2023-05-21T14:58:03.249Z,2.00
2023-05-21T15:00:48.443Z,2.28
2023-05-21T15:03:33.766Z,2.00
2023-05-21T15:06:18.973Z,2.40
2023-05-21T15:09:04.151Z,2.72
2023-05-21T15:11:52.605Z,2.40
2023-05-21T15:14:38.124Z,2.60
2023-05-21T15:17:23.918Z,2.72
2023-05-21T15:20:09.961Z,3.25
2023-05-21T15:23:08.509Z,2.70
2023-05-21T15:26:00.697Z,2.42
2023-05-21T15:28:45.949Z,2.92
2023-05-21T15:31:31.735Z,2.75
2023-05-21T15:34:18.075Z,1.90
2023-05-21T15:37:03.305Z,2.85
2023-05-21T15:39:49.146Z,2.78
2023-05-21T15:42:34.373Z,2.70
2023-05-21T15:45:19.843Z,2.67
2023-05-21T15:48:05.533Z,3.17
2023-05-21T15:50:51.222Z,2.42
2023-05-21T15:53:36.422Z,2.53
2023-05-21T15:56:22.137Z,3.22
2023-05-21T15:59:07.925Z,2.58
2023-05-21T16:01:53.207Z,2.70
2023-05-21T16:04:38.617Z,2.20
2023-05-21T16:07:24.551Z,3.30
2023-05-21T16:10:10.741Z,2.58
2023-05-21T16:12:56.400Z,2.40
2023-05-21T16:15:41.750Z,2.30
2023-05-21T16:18:27.010Z,3.50
2023-05-21T16:21:12.228Z,2.53
2023-05-21T16:23:57.778Z,2.50
2023-05-21T16:26:43.874Z,2.92
2023-05-21T16:29:29.549Z,2.50
2023-05-21T16:32:15.048Z,2.67
2023-05-21T16:35:00.241Z,2.58
2023-05-21T16:37:46.278Z,2.63
2023-05-21T16:40:31.677Z,3.00
2023-05-21T16:43:17.226Z,2.78
2023-05-21T16:46:02.462Z,2.80
2023-05-21T16:48:47.679Z,2.63
2023-05-21T16:51:33.101Z,2.78
2023-05-21T16:54:18.645Z,2.63
2023-05-21T16:57:03.942Z,2.83
2023-05-21T16:59:49.290Z,2.95
2023-05-21T17:02:34.533Z,2.67
2023-05-21T17:05:20.343Z,2.60
2023-05-21T17:08:05.753Z,2.58
2023-05-21T17:10:51.229Z,2.60
2023-05-21T17:13:36.394Z,2.50
2023-05-21T17:16:21.810Z,2.55
2023-05-21T17:19:07.117Z,3.22
2023-05-21T17:21:54.238Z,2.97
2023-05-21T17:24:39.368Z,3.60
2023-05-21T17:27:24.830Z,3.08
2023-05-21T17:30:10.472Z,2.85
2023-05-21T17:32:56.246Z,3.25
2023-05-21T17:35:41.600Z,2.30
2023-05-21T17:38:27.070Z,3.17
2023-05-21T17:41:14.806Z,2.42
2023-05-21T17:43:59.822Z,2.45
2023-05-21T17:46:56.397Z,2.97
2023-05-21T17:49:41.777Z,2.80
2023-05-21T17:52:27.359Z,2.38
2023-05-21T17:55:12.582Z,2.20
2023-05-21T17:57:58.048Z,2.50
2023-05-21T18:00:43.526Z,2.65
2023-05-21T18:03:30.138Z,2.35
2023-05-21T18:06:15.921Z,2.53
2023-05-21T18:09:01.563Z,2.75
2023-05-21T18:11:46.846Z,2.63
2023-05-21T18:14:32.117Z,2.55
2023-05-21T18:17:17.085Z,1.90
2023-05-21T18:20:04.451Z,2.47
2023-05-21T18:22:50.794Z,2.40
2023-05-21T18:25:36.227Z,2.47
2023-05-21T18:28:21.757Z,2.58
2023-05-21T18:31:07.147Z,2.78
2023-05-21T18:33:52.337Z,2.75
2023-05-21T18:36:40.720Z,2.67
2023-05-21T18:39:27.834Z,2.40
2023-05-21T18:42:14.535Z,3.08
2023-05-21T18:45:07.424Z,3.45
2023-05-21T18:47:52.881Z,3.03
2023-05-21T18:50:38.985Z,2.13
2023-05-21T18:53:24.714Z,2.55
2023-05-21T18:56:10.352Z,2.53
2023-05-21T18:58:55.713Z,2.60
2023-05-21T19:01:41.299Z,2.53
2023-05-21T19:04:27.428Z,2.53
2023-05-21T19:07:13.039Z,2.42
2023-05-21T19:10:00.206Z,2.83
2023-05-21T19:12:45.858Z,2.70
2023-05-21T19:15:31.118Z,2.70
2023-05-21T19:18:17.359Z,2.63
2023-05-21T19:21:02.518Z,2.72
2023-05-21T19:23:53.135Z,2.45
2023-05-21T19:26:39.325Z,2.85
2023-05-21T19:29:24.596Z,2.42
2023-05-21T19:32:10.187Z,3.00
2023-05-21T19:34:57.431Z,3.22
2023-05-21T19:37:42.710Z,3.00
2023-05-21T19:40:27.981Z,3.13
2023-05-21T19:43:13.285Z,3.15
2023-05-21T19:45:58.748Z,2.53
2023-05-21T19:48:43.950Z,3.10
2023-05-21T19:51:29.237Z,3.20
2023-05-21T19:54:14.547Z,4.18
2023-05-21T19:56:59.722Z,2.90
2023-05-21T19:59:44.988Z,2.85
2023-05-21T20:02:30.262Z,3.30
2023-05-21T20:05:16.231Z,2.78
2023-05-21T20:08:01.472Z,2.78
2023-05-21T20:10:48.733Z,2.80
2023-05-21T20:13:35.828Z,3.13
2023-05-21T20:16:21.555Z,2.65
2023-05-21T20:19:07.030Z,2.70
2023-05-21T20:21:52.791Z,3.05
2023-05-21T20:24:38.020Z,2.80
2023-05-21T20:27:23.356Z,2.50
2023-05-21T20:30:09.007Z,2.70
2023-05-21T20:32:54.218Z,3.55
2023-05-21T20:35:39.710Z,2.70
2023-05-21T20:38:28.056Z,2.58
2023-05-21T20:41:13.383Z,2.83
2023-05-21T20:43:58.999Z,2.88
2023-05-21T20:46:44.317Z,3.63
2023-05-21T20:49:29.468Z,3.00
2023-05-21T20:52:14.916Z,2.80
2023-05-21T20:55:00.089Z,2.88
2023-05-21T20:57:45.613Z,3.33
2023-05-21T21:00:31.769Z,2.80
2023-05-21T21:03:18.153Z,2.63
2023-05-21T21:06:04.438Z,2.85
2023-05-21T21:08:50.208Z,2.60
2023-05-21T21:11:35.715Z,5.30
2023-05-21T21:14:20.838Z,2.60
2023-05-21T21:17:06.230Z,2.92
2023-05-21T21:19:51.385Z,3.20
2023-05-21T21:22:36.776Z,3.20
2023-05-21T21:25:22.038Z,2.70
2023-05-21T21:28:07.263Z,3.03
2023-05-21T21:30:52.691Z,3.78
2023-05-21T21:33:38.118Z,2.53
2023-05-21T21:36:23.476Z,2.75
2023-05-21T21:39:08.732Z,2.92
2023-05-21T21:41:54.118Z,3.55
2023-05-21T21:44:39.653Z,3.38
2023-05-21T21:47:25.099Z,2.80
2023-05-21T21:50:10.734Z,3.10
2023-05-21T21:52:57.308Z,2.65
2023-05-21T21:55:42.573Z,2.78
2023-05-21T21:58:28.000Z,3.10
2023-05-21T22:01:13.251Z,3.42
2023-05-21T22:03:58.617Z,2.90
2023-05-21T22:06:45.410Z,2.72
2023-05-21T22:09:30.888Z,3.22
2023-05-21T22:12:16.783Z,3.10
2023-05-21T22:15:05.412Z,2.67
2023-05-21T22:17:52.021Z,2.83
2023-05-21T22:20:38.415Z,3.13
2023-05-21T22:23:23.642Z,2.70
2023-05-21T22:26:09.658Z,2.78
2023-05-21T22:28:54.982Z,2.72
2023-05-21T22:31:39.996Z,2.67
2023-05-21T22:34:25.703Z,2.67
2023-05-21T22:37:11.120Z,2.80
2023-05-21T22:39:57.337Z,3.67
2023-05-21T22:42:42.644Z,3.55
2023-05-21T22:45:28.586Z,2.75
2023-05-21T22:48:14.397Z,2.60
2023-05-21T22:51:01.880Z,2.80
2023-05-21T22:53:47.375Z,2.92
2023-05-21T22:56:32.586Z,3.10
2023-05-21T22:59:17.799Z,2.53
2023-05-21T23:02:03.221Z,2.88
2023-05-21T23:04:49.367Z,3.10
2023-05-21T23:07:34.562Z,2.95
2023-05-21T23:10:19.955Z,2.20
2023-05-21T23:13:05.269Z,2.83
2023-05-21T23:15:51.468Z,2.75
2023-05-21T23:18:36.771Z,3.05
2023-05-21T23:21:22.329Z,3.20
2023-05-21T23:24:08.633Z,2.92
2023-05-21T23:26:56.637Z,2.28
2023-05-21T23:29:42.242Z,2.45
2023-05-21T23:32:27.746Z,2.92
2023-05-21T23:35:14.437Z,2.90
2023-05-21T23:37:59.804Z,3.05
2023-05-21T23:40:45.156Z,2.67
2023-05-21T23:43:30.562Z,2.60
2023-05-21T23:46:16.188Z,2.85
2023-05-21T23:49:01.650Z,2.83
2023-05-21T23:51:50.540Z,3.38
2023-05-21T23:54:35.777Z,2.80
2023-05-21T23:57:20.984Z,2.85
